sensor_id;sensor_type;location;lat;lon;timestamp;temperature;humidity
11650;DHT22;5881;48.522;7.682;2023-07-20T00:02:23;19.00;1.00
11650;DHT22;5881;48.522;7.682;2023-07-20T00:04:49;18.90;1.00
11650;DHT22;5881;48.522;7.682;2023-07-20T00:07:14;18.80;1.00
11650;DHT22;5881;48.522;7.682;2023-07-20T00:09:40;18.70;1.00
11650;DHT22;5881;48.522;7.682;2023-07-20T00:12:06;18.70;1.00
11650;DHT22;5881;48.522;7.682;2023-07-20T00:14:32;18.60;1.00
11650;DHT22;5881;48.522;7.682;2023-07-20T00:16:57;18.60;1.00
11650;DHT22;5881;48.522;7.682;2023-07-20T00:19:27;18.70;1.00
11650;DHT22;5881;48.522;7.682;2023-07-20T00:21:53;18.70;1.00
11650;DHT22;5881;48.522;7.682;2023-07-20T00:24:20;18.60;1.00
11650;DHT22;5881;48.522;7.682;2023-07-20T00:26:45;18.60;1.00
11650;DHT22;5881;48.522;7.682;2023-07-20T00:29:11;18.60;1.00
11650;DHT22;5881;48.522;7.682;2023-07-20T00:31:37;18.50;1.00
11650;DHT22;5881;48.522;7.682;2023-07-20T00:34:03;18.50;1.00
11650;DHT22;5881;48.522;7.682;2023-07-20T00:36:29;18.40;1.00
11650;DHT22;5881;48.522;7.682;2023-07-20T00:38:55;18.30;1.00
11650;DHT22;5881;48.522;7.682;2023-07-20T00:41:20;18.40;1.00
11650;DHT22;5881;48.522;7.682;2023-07-20T00:43:46;18.30;1.00
11650;DHT22;5881;48.522;7.682;2023-07-20T00:46:12;18.30;1.00
11650;DHT22;5881;48.522;7.682;2023-07-20T00:48:37;18.30;1.00
11650;DHT22;5881;48.522;7.682;2023-07-20T00:51:04;18.20;1.00
11650;DHT22;5881;48.522;7.682;2023-07-20T00:53:30;18.10;1.00
11650;DHT22;5881;48.522;7.682;2023-07-20T00:55:55;18.10;1.00
11650;DHT22;5881;48.522;7.682;2023-07-20T00:58:22;18.00;1.00
11650;DHT22;5881;48.522;7.682;2023-07-20T01:00:48;18.00;1.00
11650;DHT22;5881;48.522;7.682;2023-07-20T01:03:13;18.00;1.00
11650;DHT22;5881;48.522;7.682;2023-07-20T01:05:51;18.00;1.00
11650;DHT22;5881;48.522;7.682;2023-07-20T01:08:26;18.00;1.00
11650;DHT22;5881;48.522;7.682;2023-07-20T01:11:01;17.90;1.00
11650;DHT22;5881;48.522;7.682;2023-07-20T01:13:32;17.80;1.00
11650;DHT22;5881;48.522;7.682;2023-07-20T01:16:00;17.80;1.00
11650;DHT22;5881;48.522;7.682;2023-07-20T01:18:26;17.80;1.00
11650;DHT22;5881;48.522;7.682;2023-07-20T01:20:56;17.70;1.00
11650;DHT22;5881;48.522;7.682;2023-07-20T01:31:44;17.60;1.00
11650;DHT22;5881;48.522;7.682;2023-07-20T01:34:12;17.70;1.00
11650;DHT22;5881;48.522;7.682;2023-07-20T01:36:40;17.60;1.00
11650;DHT22;5881;48.522;7.682;2023-07-20T01:39:06;17.50;1.00
11650;DHT22;5881;48.522;7.682;2023-07-20T01:41:33;17.40;1.00
11650;DHT22;5881;48.522;7.682;2023-07-20T01:43:59;17.50;1.00
11650;DHT22;5881;48.522;7.682;2023-07-20T01:46:25;17.40;1.00
11650;DHT22;5881;48.522;7.682;2023-07-20T01:48:50;17.40;1.00
11650;DHT22;5881;48.522;7.682;2023-07-20T01:51:16;17.40;1.00
11650;DHT22;5881;48.522;7.682;2023-07-20T01:53:43;17.50;1.00
11650;DHT22;5881;48.522;7.682;2023-07-20T01:56:09;17.40;1.00
11650;DHT22;5881;48.522;7.682;2023-07-20T01:58:34;17.50;1.00
11650;DHT22;5881;48.522;7.682;2023-07-20T02:01:01;17.40;1.00
11650;DHT22;5881;48.522;7.682;2023-07-20T02:03:27;17.40;1.00
11650;DHT22;5881;48.522;7.682;2023-07-20T02:05:52;17.30;1.00
11650;DHT22;5881;48.522;7.682;2023-07-20T02:08:18;17.30;1.00
11650;DHT22;5881;48.522;7.682;2023-07-20T02:10:48;17.20;1.00
11650;DHT22;5881;48.522;7.682;2023-07-20T02:13:14;17.20;1.00
11650;DHT22;5881;48.522;7.682;2023-07-20T02:15:39;17.30;1.00
11650;DHT22;5881;48.522;7.682;2023-07-20T02:18:06;17.20;1.00
11650;DHT22;5881;48.522;7.682;2023-07-20T02:20:31;17.20;1.00
11650;DHT22;5881;48.522;7.682;2023-07-20T02:22:57;17.00;1.00
11650;DHT22;5881;48.522;7.682;2023-07-20T02:25:22;17.00;1.00
11650;DHT22;5881;48.522;7.682;2023-07-20T02:27:48;16.80;1.00
11650;DHT22;5881;48.522;7.682;2023-07-20T02:30:13;16.90;1.00
11650;DHT22;5881;48.522;7.682;2023-07-20T02:32:39;16.90;1.00
11650;DHT22;5881;48.522;7.682;2023-07-20T02:35:05;16.80;1.00
11650;DHT22;5881;48.522;7.682;2023-07-20T02:37:31;16.70;1.00
11650;DHT22;5881;48.522;7.682;2023-07-20T02:39:57;16.70;1.00
11650;DHT22;5881;48.522;7.682;2023-07-20T02:42:23;16.70;1.00
11650;DHT22;5881;48.522;7.682;2023-07-20T02:44:51;16.70;1.00
11650;DHT22;5881;48.522;7.682;2023-07-20T02:47:17;16.70;1.00
11650;DHT22;5881;48.522;7.682;2023-07-20T02:49:42;16.80;1.00
11650;DHT22;5881;48.522;7.682;2023-07-20T02:52:09;16.80;1.00
11650;DHT22;5881;48.522;7.682;2023-07-20T02:54:34;16.90;1.00
11650;DHT22;5881;48.522;7.682;2023-07-20T02:57:00;16.80;1.00
11650;DHT22;5881;48.522;7.682;2023-07-20T02:59:26;16.80;1.00
11650;DHT22;5881;48.522;7.682;2023-07-20T03:01:52;16.80;1.00
11650;DHT22;5881;48.522;7.682;2023-07-20T03:04:19;16.80;1.00
11650;DHT22;5881;48.522;7.682;2023-07-20T03:06:45;16.60;1.00
11650;DHT22;5881;48.522;7.682;2023-07-20T03:09:10;16.60;1.00
11650;DHT22;5881;48.522;7.682;2023-07-20T03:11:36;16.50;1.00
11650;DHT22;5881;48.522;7.682;2023-07-20T03:14:02;16.70;1.00
11650;DHT22;5881;48.522;7.682;2023-07-20T03:16:27;16.60;1.00
11650;DHT22;5881;48.522;7.682;2023-07-20T03:18:53;16.60;1.00
11650;DHT22;5881;48.522;7.682;2023-07-20T03:21:19;16.50;1.00
11650;DHT22;5881;48.522;7.682;2023-07-20T03:23:44;16.40;1.00
11650;DHT22;5881;48.522;7.682;2023-07-20T03:26:10;16.40;1.00
11650;DHT22;5881;48.522;7.682;2023-07-20T03:28:36;16.40;1.00
11650;DHT22;5881;48.522;7.682;2023-07-20T03:31:03;16.30;1.00
11650;DHT22;5881;48.522;7.682;2023-07-20T03:33:29;16.20;1.00
11650;DHT22;5881;48.522;7.682;2023-07-20T03:35:56;16.20;1.00
11650;DHT22;5881;48.522;7.682;2023-07-20T03:38:26;16.20;1.00
11650;DHT22;5881;48.522;7.682;2023-07-20T03:41:01;16.20;1.00
11650;DHT22;5881;48.522;7.682;2023-07-20T03:43:27;16.10;1.00
11650;DHT22;5881;48.522;7.682;2023-07-20T03:45:53;16.30;1.00
11650;DHT22;5881;48.522;7.682;2023-07-20T03:48:21;16.30;1.00
11650;DHT22;5881;48.522;7.682;2023-07-20T03:50:48;16.30;1.00
11650;DHT22;5881;48.522;7.682;2023-07-20T03:53:14;16.10;1.00
11650;DHT22;5881;48.522;7.682;2023-07-20T03:55:50;16.20;1.00
11650;DHT22;5881;48.522;7.682;2023-07-20T03:58:16;16.20;1.00
11650;DHT22;5881;48.522;7.682;2023-07-20T04:00:46;16.20;1.00
11650;DHT22;5881;48.522;7.682;2023-07-20T04:03:13;16.20;1.00
11650;DHT22;5881;48.522;7.682;2023-07-20T04:05:39;16.30;1.00
11650;DHT22;5881;48.522;7.682;2023-07-20T04:08:04;16.30;1.00
11650;DHT22;5881;48.522;7.682;2023-07-20T04:10:30;16.20;1.00
11650;DHT22;5881;48.522;7.682;2023-07-20T04:12:56;16.10;1.00
11650;DHT22;5881;48.522;7.682;2023-07-20T04:15:21;16.10;1.00
11650;DHT22;5881;48.522;7.682;2023-07-20T04:17:47;16.10;1.00
11650;DHT22;5881;48.522;7.682;2023-07-20T04:20:13;16.10;1.00
11650;DHT22;5881;48.522;7.682;2023-07-20T04:22:38;16.00;1.00
11650;DHT22;5881;48.522;7.682;2023-07-20T04:25:04;16.00;1.00
11650;DHT22;5881;48.522;7.682;2023-07-20T04:27:30;16.00;1.00
11650;DHT22;5881;48.522;7.682;2023-07-20T04:29:57;16.10;1.00
11650;DHT22;5881;48.522;7.682;2023-07-20T04:32:25;16.20;1.00
11650;DHT22;5881;48.522;7.682;2023-07-20T04:34:51;16.20;1.00
11650;DHT22;5881;48.522;7.682;2023-07-20T04:37:16;16.40;1.00
11650;DHT22;5881;48.522;7.682;2023-07-20T04:39:42;16.40;1.00
11650;DHT22;5881;48.522;7.682;2023-07-20T04:42:07;16.50;1.00
11650;DHT22;5881;48.522;7.682;2023-07-20T04:44:33;16.50;1.00
11650;DHT22;5881;48.522;7.682;2023-07-20T04:46:59;16.50;1.00
11650;DHT22;5881;48.522;7.682;2023-07-20T04:49:24;16.70;1.00
11650;DHT22;5881;48.522;7.682;2023-07-20T04:51:51;16.80;1.00
11650;DHT22;5881;48.522;7.682;2023-07-20T04:54:17;16.80;1.00
11650;DHT22;5881;48.522;7.682;2023-07-20T04:56:43;16.90;1.00
11650;DHT22;5881;48.522;7.682;2023-07-20T04:59:09;17.00;1.00
11650;DHT22;5881;48.522;7.682;2023-07-20T05:01:35;17.00;1.00
11650;DHT22;5881;48.522;7.682;2023-07-20T05:04:00;17.10;1.00
11650;DHT22;5881;48.522;7.682;2023-07-20T05:06:26;17.10;1.00
11650;DHT22;5881;48.522;7.682;2023-07-20T05:08:55;17.30;1.00
11650;DHT22;5881;48.522;7.682;2023-07-20T05:11:20;17.40;1.00
11650;DHT22;5881;48.522;7.682;2023-07-20T05:13:46;17.60;1.00
11650;DHT22;5881;48.522;7.682;2023-07-20T05:16:11;18.00;1.00
11650;DHT22;5881;48.522;7.682;2023-07-20T05:18:37;18.00;1.00
11650;DHT22;5881;48.522;7.682;2023-07-20T05:21:03;18.40;1.00
11650;DHT22;5881;48.522;7.682;2023-07-20T05:23:28;18.90;1.00
11650;DHT22;5881;48.522;7.682;2023-07-20T05:25:58;19.20;1.00
11650;DHT22;5881;48.522;7.682;2023-07-20T05:28:25;19.10;1.00
11650;DHT22;5881;48.522;7.682;2023-07-20T05:30:51;18.80;1.00
11650;DHT22;5881;48.522;7.682;2023-07-20T05:33:18;18.60;1.00
11650;DHT22;5881;48.522;7.682;2023-07-20T05:35:44;18.50;1.00
11650;DHT22;5881;48.522;7.682;2023-07-20T05:38:10;18.80;1.00
11650;DHT22;5881;48.522;7.682;2023-07-20T05:40:41;18.70;1.00
11650;DHT22;5881;48.522;7.682;2023-07-20T05:43:11;18.90;1.00
11650;DHT22;5881;48.522;7.682;2023-07-20T05:45:36;19.10;1.00
11650;DHT22;5881;48.522;7.682;2023-07-20T05:48:02;19.30;1.00
11650;DHT22;5881;48.522;7.682;2023-07-20T05:50:28;19.70;1.00
11650;DHT22;5881;48.522;7.682;2023-07-20T05:52:54;20.30;1.00
11650;DHT22;5881;48.522;7.682;2023-07-20T05:55:20;21.00;1.00
11650;DHT22;5881;48.522;7.682;2023-07-20T05:57:46;21.80;1.00
11650;DHT22;5881;48.522;7.682;2023-07-20T06:00:13;22.30;1.00
11650;DHT22;5881;48.522;7.682;2023-07-20T06:02:39;22.80;1.00
11650;DHT22;5881;48.522;7.682;2023-07-20T06:05:08;23.90;1.00
11650;DHT22;5881;48.522;7.682;2023-07-20T06:07:38;24.20;1.00
11650;DHT22;5881;48.522;7.682;2023-07-20T06:10:04;24.20;1.00
11650;DHT22;5881;48.522;7.682;2023-07-20T06:12:31;25.20;1.00
11650;DHT22;5881;48.522;7.682;2023-07-20T06:14:56;25.70;1.00
11650;DHT22;5881;48.522;7.682;2023-07-20T06:17:22;26.10;1.00
11650;DHT22;5881;48.522;7.682;2023-07-20T06:19:47;25.50;1.00
11650;DHT22;5881;48.522;7.682;2023-07-20T06:22:13;25.90;1.00
11650;DHT22;5881;48.522;7.682;2023-07-20T06:24:39;26.60;1.00
11650;DHT22;5881;48.522;7.682;2023-07-20T06:27:05;26.70;1.00
11650;DHT22;5881;48.522;7.682;2023-07-20T06:29:31;25.60;1.00
11650;DHT22;5881;48.522;7.682;2023-07-20T06:31:56;25.50;1.00
11650;DHT22;5881;48.522;7.682;2023-07-20T06:34:22;25.00;1.00
11650;DHT22;5881;48.522;7.682;2023-07-20T06:36:48;25.40;1.00
11650;DHT22;5881;48.522;7.682;2023-07-20T06:39:13;26.60;1.00
11650;DHT22;5881;48.522;7.682;2023-07-20T06:41:39;27.60;1.00
11650;DHT22;5881;48.522;7.682;2023-07-20T06:44:05;25.80;1.00
11650;DHT22;5881;48.522;7.682;2023-07-20T06:46:31;26.10;1.00
11650;DHT22;5881;48.522;7.682;2023-07-20T06:48:56;27.10;1.00
11650;DHT22;5881;48.522;7.682;2023-07-20T06:51:22;27.40;1.00
11650;DHT22;5881;48.522;7.682;2023-07-20T06:53:48;27.40;1.00
11650;DHT22;5881;48.522;7.682;2023-07-20T06:56:13;25.80;1.00
11650;DHT22;5881;48.522;7.682;2023-07-20T06:58:39;24.70;1.00
11650;DHT22;5881;48.522;7.682;2023-07-20T07:01:08;26.30;1.00
11650;DHT22;5881;48.522;7.682;2023-07-20T07:03:34;27.30;1.00
11650;DHT22;5881;48.522;7.682;2023-07-20T07:06:00;28.00;1.00
11650;DHT22;5881;48.522;7.682;2023-07-20T07:08:26;28.20;1.00
11650;DHT22;5881;48.522;7.682;2023-07-20T07:10:52;28.20;1.00
11650;DHT22;5881;48.522;7.682;2023-07-20T07:13:18;28.10;1.00
11650;DHT22;5881;48.522;7.682;2023-07-20T07:15:44;28.00;1.00
11650;DHT22;5881;48.522;7.682;2023-07-20T07:18:10;28.70;1.00
11650;DHT22;5881;48.522;7.682;2023-07-20T07:20:36;27.80;1.00
11650;DHT22;5881;48.522;7.682;2023-07-20T07:23:02;28.50;1.00
11650;DHT22;5881;48.522;7.682;2023-07-20T07:25:27;29.80;1.00
11650;DHT22;5881;48.522;7.682;2023-07-20T07:27:54;30.40;1.00
11650;DHT22;5881;48.522;7.682;2023-07-20T07:30:20;30.50;1.00
11650;DHT22;5881;48.522;7.682;2023-07-20T07:32:46;30.20;1.00
11650;DHT22;5881;48.522;7.682;2023-07-20T07:35:12;30.20;1.00
11650;DHT22;5881;48.522;7.682;2023-07-20T07:37:38;31.00;1.00
11650;DHT22;5881;48.522;7.682;2023-07-20T07:40:04;31.20;1.00
11650;DHT22;5881;48.522;7.682;2023-07-20T07:42:31;31.50;1.00
11650;DHT22;5881;48.522;7.682;2023-07-20T07:44:57;30.80;1.00
11650;DHT22;5881;48.522;7.682;2023-07-20T07:47:22;30.70;1.00
11650;DHT22;5881;48.522;7.682;2023-07-20T07:49:48;30.50;1.00
11650;DHT22;5881;48.522;7.682;2023-07-20T07:52:14;30.90;1.00
11650;DHT22;5881;48.522;7.682;2023-07-20T07:54:40;31.40;1.00
11650;DHT22;5881;48.522;7.682;2023-07-20T07:57:06;31.30;1.00
11650;DHT22;5881;48.522;7.682;2023-07-20T07:59:31;30.40;1.00
11650;DHT22;5881;48.522;7.682;2023-07-20T08:02:02;30.70;1.00
11650;DHT22;5881;48.522;7.682;2023-07-20T08:04:28;31.00;1.00
11650;DHT22;5881;48.522;7.682;2023-07-20T08:06:53;32.00;1.00
11650;DHT22;5881;48.522;7.682;2023-07-20T08:09:19;31.40;1.00
11650;DHT22;5881;48.522;7.682;2023-07-20T08:11:45;32.00;1.00
11650;DHT22;5881;48.522;7.682;2023-07-20T08:14:10;31.50;1.00
11650;DHT22;5881;48.522;7.682;2023-07-20T08:16:36;32.60;1.00
11650;DHT22;5881;48.522;7.682;2023-07-20T08:19:01;33.40;1.00
11650;DHT22;5881;48.522;7.682;2023-07-20T08:21:27;32.60;1.00
11650;DHT22;5881;48.522;7.682;2023-07-20T08:23:53;30.80;1.00
11650;DHT22;5881;48.522;7.682;2023-07-20T08:26:19;31.00;1.00
11650;DHT22;5881;48.522;7.682;2023-07-20T08:28:47;28.70;1.00
11650;DHT22;5881;48.522;7.682;2023-07-20T08:31:13;29.60;1.00
11650;DHT22;5881;48.522;7.682;2023-07-20T08:33:39;28.30;1.00
11650;DHT22;5881;48.522;7.682;2023-07-20T08:36:05;27.00;1.00
11650;DHT22;5881;48.522;7.682;2023-07-20T08:38:31;26.30;1.00
11650;DHT22;5881;48.522;7.682;2023-07-20T08:40:57;26.00;1.00
11650;DHT22;5881;48.522;7.682;2023-07-20T08:43:28;27.50;1.00
11650;DHT22;5881;48.522;7.682;2023-07-20T08:45:57;26.80;1.00
11650;DHT22;5881;48.522;7.682;2023-07-20T08:48:24;28.50;1.00
11650;DHT22;5881;48.522;7.682;2023-07-20T08:50:51;31.80;1.00
11650;DHT22;5881;48.522;7.682;2023-07-20T08:53:19;31.00;1.00
11650;DHT22;5881;48.522;7.682;2023-07-20T08:55:45;28.40;1.00
11650;DHT22;5881;48.522;7.682;2023-07-20T08:58:13;27.80;1.00
11650;DHT22;5881;48.522;7.682;2023-07-20T09:00:41;27.10;1.00
11650;DHT22;5881;48.522;7.682;2023-07-20T09:03:07;29.10;1.00
11650;DHT22;5881;48.522;7.682;2023-07-20T09:05:33;30.60;1.00
11650;DHT22;5881;48.522;7.682;2023-07-20T09:08:00;31.50;1.00
11650;DHT22;5881;48.522;7.682;2023-07-20T09:10:27;32.30;1.00
11650;DHT22;5881;48.522;7.682;2023-07-20T09:12:53;32.00;1.00
11650;DHT22;5881;48.522;7.682;2023-07-20T09:15:21;31.20;1.00
11650;DHT22;5881;48.522;7.682;2023-07-20T09:17:50;28.90;1.00
11650;DHT22;5881;48.522;7.682;2023-07-20T09:20:18;29.90;1.00
11650;DHT22;5881;48.522;7.682;2023-07-20T09:22:44;32.20;1.00
11650;DHT22;5881;48.522;7.682;2023-07-20T09:25:14;29.30;1.00
11650;DHT22;5881;48.522;7.682;2023-07-20T09:27:44;28.20;1.00
11650;DHT22;5881;48.522;7.682;2023-07-20T09:30:11;27.50;1.00
11650;DHT22;5881;48.522;7.682;2023-07-20T09:35:06;26.40;1.00
11650;DHT22;5881;48.522;7.682;2023-07-20T09:37:33;26.10;1.00
11650;DHT22;5881;48.522;7.682;2023-07-20T09:39:59;25.70;1.00
11650;DHT22;5881;48.522;7.682;2023-07-20T09:42:25;26.50;1.00
11650;DHT22;5881;48.522;7.682;2023-07-20T09:44:52;29.80;1.00
11650;DHT22;5881;48.522;7.682;2023-07-20T09:47:24;31.30;1.00
11650;DHT22;5881;48.522;7.682;2023-07-20T09:49:57;29.20;1.00
11650;DHT22;5881;48.522;7.682;2023-07-20T09:52:23;30.60;1.00
11650;DHT22;5881;48.522;7.682;2023-07-20T09:54:49;29.20;1.00
11650;DHT22;5881;48.522;7.682;2023-07-20T09:57:15;28.50;1.00
11650;DHT22;5881;48.522;7.682;2023-07-20T09:59:41;27.40;1.00
11650;DHT22;5881;48.522;7.682;2023-07-20T10:02:17;26.60;1.00
11650;DHT22;5881;48.522;7.682;2023-07-20T10:04:45;26.10;1.00
11650;DHT22;5881;48.522;7.682;2023-07-20T10:07:12;25.90;1.00
11650;DHT22;5881;48.522;7.682;2023-07-20T10:09:40;25.80;1.00
11650;DHT22;5881;48.522;7.682;2023-07-20T10:12:08;25.50;1.00
11650;DHT22;5881;48.522;7.682;2023-07-20T10:14:38;28.30;1.00
11650;DHT22;5881;48.522;7.682;2023-07-20T10:17:07;30.50;1.00
11650;DHT22;5881;48.522;7.682;2023-07-20T10:22:24;30.30;1.00
11650;DHT22;5881;48.522;7.682;2023-07-20T10:24:51;31.00;1.00
11650;DHT22;5881;48.522;7.682;2023-07-20T10:27:20;31.60;1.00
11650;DHT22;5881;48.522;7.682;2023-07-20T10:29:47;31.20;1.00
11650;DHT22;5881;48.522;7.682;2023-07-20T10:32:13;30.20;1.00
11650;DHT22;5881;48.522;7.682;2023-07-20T10:34:39;28.30;1.00
11650;DHT22;5881;48.522;7.682;2023-07-20T10:37:05;28.00;1.00
11650;DHT22;5881;48.522;7.682;2023-07-20T10:39:32;27.40;1.00
11650;DHT22;5881;48.522;7.682;2023-07-20T10:42:08;27.20;1.00
11650;DHT22;5881;48.522;7.682;2023-07-20T10:44:34;26.90;1.00
11650;DHT22;5881;48.522;7.682;2023-07-20T10:47:03;27.40;1.00
11650;DHT22;5881;48.522;7.682;2023-07-20T10:49:34;29.00;1.00
11650;DHT22;5881;48.522;7.682;2023-07-20T10:52:04;28.70;1.00
11650;DHT22;5881;48.522;7.682;2023-07-20T10:56:57;27.20;1.00
11650;DHT22;5881;48.522;7.682;2023-07-20T11:01:49;29.00;1.00
11650;DHT22;5881;48.522;7.682;2023-07-20T11:04:15;28.10;1.00
11650;DHT22;5881;48.522;7.682;2023-07-20T11:06:45;29.20;1.00
11650;DHT22;5881;48.522;7.682;2023-07-20T11:09:13;30.80;1.00
11650;DHT22;5881;48.522;7.682;2023-07-20T11:11:44;30.90;1.00
11650;DHT22;5881;48.522;7.682;2023-07-20T11:14:21;30.00;1.00
11650;DHT22;5881;48.522;7.682;2023-07-20T11:16:47;28.30;1.00
11650;DHT22;5881;48.522;7.682;2023-07-20T11:19:23;27.40;1.00
11650;DHT22;5881;48.522;7.682;2023-07-20T11:21:57;27.40;1.00
11650;DHT22;5881;48.522;7.682;2023-07-20T11:24:23;29.00;1.00
11650;DHT22;5881;48.522;7.682;2023-07-20T11:26:51;29.80;1.00
11650;DHT22;5881;48.522;7.682;2023-07-20T11:29:18;29.60;1.00
11650;DHT22;5881;48.522;7.682;2023-07-20T11:31:45;29.60;1.00
11650;DHT22;5881;48.522;7.682;2023-07-20T11:34:16;30.50;1.00
11650;DHT22;5881;48.522;7.682;2023-07-20T11:36:44;28.80;1.00
11650;DHT22;5881;48.522;7.682;2023-07-20T11:39:10;28.90;1.00
11650;DHT22;5881;48.522;7.682;2023-07-20T11:41:36;29.70;1.00
11650;DHT22;5881;48.522;7.682;2023-07-20T11:44:04;28.30;1.00
11650;DHT22;5881;48.522;7.682;2023-07-20T11:46:32;29.50;1.00
11650;DHT22;5881;48.522;7.682;2023-07-20T11:49:01;30.20;1.00
11650;DHT22;5881;48.522;7.682;2023-07-20T11:51:28;31.00;1.00
11650;DHT22;5881;48.522;7.682;2023-07-20T11:53:54;30.20;1.00
11650;DHT22;5881;48.522;7.682;2023-07-20T11:56:20;30.20;1.00
11650;DHT22;5881;48.522;7.682;2023-07-20T11:58:45;30.50;1.00
11650;DHT22;5881;48.522;7.682;2023-07-20T12:01:14;29.20;1.00
11650;DHT22;5881;48.522;7.682;2023-07-20T12:03:42;28.70;1.00
11650;DHT22;5881;48.522;7.682;2023-07-20T12:06:09;28.70;1.00
11650;DHT22;5881;48.522;7.682;2023-07-20T12:08:34;29.40;1.00
11650;DHT22;5881;48.522;7.682;2023-07-20T12:11:00;29.80;1.00
11650;DHT22;5881;48.522;7.682;2023-07-20T12:13:44;29.40;1.00
11650;DHT22;5881;48.522;7.682;2023-07-20T12:16:12;29.20;1.00
11650;DHT22;5881;48.522;7.682;2023-07-20T12:18:38;29.20;1.00
11650;DHT22;5881;48.522;7.682;2023-07-20T12:21:05;28.50;1.00
11650;DHT22;5881;48.522;7.682;2023-07-20T12:23:41;28.30;1.00
11650;DHT22;5881;48.522;7.682;2023-07-20T12:26:10;28.50;1.00
11650;DHT22;5881;48.522;7.682;2023-07-20T12:28:40;29.20;1.00
11650;DHT22;5881;48.522;7.682;2023-07-20T12:31:09;29.70;1.00
11650;DHT22;5881;48.522;7.682;2023-07-20T12:33:36;30.00;1.00
11650;DHT22;5881;48.522;7.682;2023-07-20T12:36:02;30.20;1.00
11650;DHT22;5881;48.522;7.682;2023-07-20T12:38:28;29.00;1.00
11650;DHT22;5881;48.522;7.682;2023-07-20T12:40:56;28.70;1.00
11650;DHT22;5881;48.522;7.682;2023-07-20T12:43:22;29.20;1.00
11650;DHT22;5881;48.522;7.682;2023-07-20T12:45:47;29.60;1.00
11650;DHT22;5881;48.522;7.682;2023-07-20T12:48:13;29.80;1.00
11650;DHT22;5881;48.522;7.682;2023-07-20T12:50:39;29.80;1.00
11650;DHT22;5881;48.522;7.682;2023-07-20T12:53:04;30.00;1.00
11650;DHT22;5881;48.522;7.682;2023-07-20T12:55:30;30.40;1.00
11650;DHT22;5881;48.522;7.682;2023-07-20T12:57:56;30.20;1.00
11650;DHT22;5881;48.522;7.682;2023-07-20T13:00:22;29.90;1.00
11650;DHT22;5881;48.522;7.682;2023-07-20T13:02:49;30.00;1.00
11650;DHT22;5881;48.522;7.682;2023-07-20T13:05:14;29.80;1.00
11650;DHT22;5881;48.522;7.682;2023-07-20T13:07:41;29.90;1.00
11650;DHT22;5881;48.522;7.682;2023-07-20T13:10:07;29.60;1.00
11650;DHT22;5881;48.522;7.682;2023-07-20T13:12:34;28.70;1.00
11650;DHT22;5881;48.522;7.682;2023-07-20T13:15:01;28.70;1.00
11650;DHT22;5881;48.522;7.682;2023-07-20T13:17:28;29.00;1.00
11650;DHT22;5881;48.522;7.682;2023-07-20T13:19:55;28.80;1.00
11650;DHT22;5881;48.522;7.682;2023-07-20T13:22:20;29.00;1.00
11650;DHT22;5881;48.522;7.682;2023-07-20T13:24:46;29.60;1.00
11650;DHT22;5881;48.522;7.682;2023-07-20T13:27:18;29.50;1.00
11650;DHT22;5881;48.522;7.682;2023-07-20T13:29:44;29.60;1.00
11650;DHT22;5881;48.522;7.682;2023-07-20T13:32:13;29.40;1.00
11650;DHT22;5881;48.522;7.682;2023-07-20T13:34:38;28.90;1.00
11650;DHT22;5881;48.522;7.682;2023-07-20T13:37:04;29.20;1.00
11650;DHT22;5881;48.522;7.682;2023-07-20T13:39:30;28.90;1.00
11650;DHT22;5881;48.522;7.682;2023-07-20T13:41:56;28.30;1.00
11650;DHT22;5881;48.522;7.682;2023-07-20T13:44:22;27.80;1.00
11650;DHT22;5881;48.522;7.682;2023-07-20T13:46:48;28.20;1.00
11650;DHT22;5881;48.522;7.682;2023-07-20T13:49:14;28.60;1.00
11650;DHT22;5881;48.522;7.682;2023-07-20T13:51:41;28.50;1.00
11650;DHT22;5881;48.522;7.682;2023-07-20T13:54:06;28.70;1.00
11650;DHT22;5881;48.522;7.682;2023-07-20T13:56:32;28.30;1.00
11650;DHT22;5881;48.522;7.682;2023-07-20T13:58:58;28.60;1.00
11650;DHT22;5881;48.522;7.682;2023-07-20T14:01:23;28.70;1.00
11650;DHT22;5881;48.522;7.682;2023-07-20T14:03:50;28.90;1.00
11650;DHT22;5881;48.522;7.682;2023-07-20T14:06:16;29.00;1.00
11650;DHT22;5881;48.522;7.682;2023-07-20T14:08:43;28.90;1.00
11650;DHT22;5881;48.522;7.682;2023-07-20T14:11:12;28.60;1.00
11650;DHT22;5881;48.522;7.682;2023-07-20T14:13:37;28.60;1.00
11650;DHT22;5881;48.522;7.682;2023-07-20T14:16:04;28.50;1.00
11650;DHT22;5881;48.522;7.682;2023-07-20T14:18:29;28.40;1.00
11650;DHT22;5881;48.522;7.682;2023-07-20T14:20:55;28.60;1.00
11650;DHT22;5881;48.522;7.682;2023-07-20T14:23:20;28.50;1.00
11650;DHT22;5881;48.522;7.682;2023-07-20T14:25:46;28.40;1.00
11650;DHT22;5881;48.522;7.682;2023-07-20T14:28:12;28.30;1.00
11650;DHT22;5881;48.522;7.682;2023-07-20T14:30:38;28.50;1.00
11650;DHT22;5881;48.522;7.682;2023-07-20T14:33:03;28.40;1.00
11650;DHT22;5881;48.522;7.682;2023-07-20T14:35:29;28.60;1.00
11650;DHT22;5881;48.522;7.682;2023-07-20T14:37:55;28.70;1.00
11650;DHT22;5881;48.522;7.682;2023-07-20T14:40:23;28.40;1.00
11650;DHT22;5881;48.522;7.682;2023-07-20T14:42:49;28.00;1.00
11650;DHT22;5881;48.522;7.682;2023-07-20T14:45:15;28.20;1.00
11650;DHT22;5881;48.522;7.682;2023-07-20T14:47:40;28.20;1.00
11650;DHT22;5881;48.522;7.682;2023-07-20T14:50:06;28.50;1.00
11650;DHT22;5881;48.522;7.682;2023-07-20T14:52:32;28.40;1.00
11650;DHT22;5881;48.522;7.682;2023-07-20T14:54:58;27.90;1.00
11650;DHT22;5881;48.522;7.682;2023-07-20T14:57:23;27.80;1.00
11650;DHT22;5881;48.522;7.682;2023-07-20T14:59:49;27.80;1.00
11650;DHT22;5881;48.522;7.682;2023-07-20T15:02:15;27.90;1.00
11650;DHT22;5881;48.522;7.682;2023-07-20T15:04:48;27.70;1.00
11650;DHT22;5881;48.522;7.682;2023-07-20T15:07:16;28.00;1.00
11650;DHT22;5881;48.522;7.682;2023-07-20T15:09:42;28.30;1.00
11650;DHT22;5881;48.522;7.682;2023-07-20T15:12:08;28.40;1.00
11650;DHT22;5881;48.522;7.682;2023-07-20T15:14:34;28.10;1.00
11650;DHT22;5881;48.522;7.682;2023-07-20T15:17:00;28.10;1.00
11650;DHT22;5881;48.522;7.682;2023-07-20T15:19:26;28.10;1.00
11650;DHT22;5881;48.522;7.682;2023-07-20T15:21:51;28.30;1.00
11650;DHT22;5881;48.522;7.682;2023-07-20T15:24:17;28.20;1.00
11650;DHT22;5881;48.522;7.682;2023-07-20T15:26:42;28.40;1.00
11650;DHT22;5881;48.522;7.682;2023-07-20T15:29:08;28.10;1.00
11650;DHT22;5881;48.522;7.682;2023-07-20T15:31:34;28.10;1.00
11650;DHT22;5881;48.522;7.682;2023-07-20T15:34:01;28.10;1.00
11650;DHT22;5881;48.522;7.682;2023-07-20T15:36:27;28.00;1.00
11650;DHT22;5881;48.522;7.682;2023-07-20T15:38:52;27.50;1.00
11650;DHT22;5881;48.522;7.682;2023-07-20T15:41:18;27.50;1.00
11650;DHT22;5881;48.522;7.682;2023-07-20T15:43:44;27.60;1.00
11650;DHT22;5881;48.522;7.682;2023-07-20T15:48:44;27.50;1.00
11650;DHT22;5881;48.522;7.682;2023-07-20T15:51:10;27.70;1.00
11650;DHT22;5881;48.522;7.682;2023-07-20T15:53:36;27.80;1.00
11650;DHT22;5881;48.522;7.682;2023-07-20T15:56:01;27.60;1.00
11650;DHT22;5881;48.522;7.682;2023-07-20T15:58:27;27.70;1.00
11650;DHT22;5881;48.522;7.682;2023-07-20T16:00:54;27.70;1.00
11650;DHT22;5881;48.522;7.682;2023-07-20T16:03:20;27.40;1.00
11650;DHT22;5881;48.522;7.682;2023-07-20T16:05:46;27.50;1.00
11650;DHT22;5881;48.522;7.682;2023-07-20T16:08:12;27.50;1.00
11650;DHT22;5881;48.522;7.682;2023-07-20T16:10:38;27.60;1.00
11650;DHT22;5881;48.522;7.682;2023-07-20T16:13:04;27.40;1.00
11650;DHT22;5881;48.522;7.682;2023-07-20T16:15:30;27.30;1.00
11650;DHT22;5881;48.522;7.682;2023-07-20T16:17:55;27.20;1.00
11650;DHT22;5881;48.522;7.682;2023-07-20T16:20:21;27.30;1.00